Time;durP1;ratioP1;P1;durP2;ratioP2;P2;SDS_P1;SDS_P2;PMS_P1;PMS_P2;Temp;Humidity;BMP_temperature;BMP_pressure;BME280_temperature;BME280_humidity;BME280_pressure;Samples;Min_cycle;Max_cycle;Signal;HPM_P1;HPM_P2
2022/06/17 00:02:22;;;;;;;8.43;6.15;;;;;;;21.99;63.77;100386.94;10481716;28;20041;-68
2022/06/17 00:07:23;;;;;;;7.97;6.90;;;;;;;21.88;63.85;100367.81;10456181;28;20061;-69
2022/06/17 00:12:24;;;;;;;12.55;7.07;;;;;;;21.91;65.16;100380.03;10455022;28;20149;-68
2022/06/17 00:17:24;;;;;;;12.40;7.30;;;;;;;21.61;68.01;100369.44;10456272;28;20435;-68
2022/06/17 00:22:25;;;;;;;8.60;7.32;;;;;;;21.60;70.00;100382.16;10455875;28;20036;-68
2022/06/17 00:27:26;;;;;;;8.82;7.55;;;;;;;21.47;71.50;100387.81;10455946;28;20131;-68
2022/06/17 00:32:27;;;;;;;12.05;8.13;;;;;;;21.38;72.44;100371.16;10478934;28;20411;-68
2022/06/17 00:37:28;;;;;;;10.77;7.95;;;;;;;21.32;72.89;100382.88;10496087;28;20090;-68
2022/06/17 00:42:29;;;;;;;11.38;7.53;;;;;;;21.16;73.40;100368.22;10496229;28;20040;-71
2022/06/17 00:47:39;;;;;;;9.27;8.15;;;;;;;21.06;75.67;100354.53;10479430;28;20072;-68
2022/06/17 00:53:20;;;;;;;18.27;7.88;;;;;;;21.31;76.71;100402.03;10496227;28;20066;-68
2022/06/17 00:58:29;;;;;;;14.35;8.40;;;;;;;20.24;75.96;100268.94;10446278;28;20090;-68
2022/06/17 01:03:35;;;;;;;28.33;9.65;;;;;;;20.94;77.08;100388.81;10495585;28;20041;-71
2022/06/17 01:14:05;;;;;;;12.55;8.23;;;;;;;20.64;76.83;100373.53;10495265;28;20056;-72
2022/06/17 01:19:30;;;;;;;50.85;10.93;;;;;;;21.01;79.02;100410.28;10496526;28;20053;-68
2022/06/17 01:24:31;;;;;;;14.70;8.30;;;;;;;20.94;75.52;100394.22;10495193;28;20492;-68
2022/06/17 01:29:33;;;;;;;15.13;7.70;;;;;;;20.92;75.14;100389.03;10495797;28;20036;-68
2022/06/17 01:34:35;;;;;;;10.38;7.65;;;;;;;20.94;74.70;100402.31;10495111;28;20048;-68
2022/06/17 01:39:35;;;;;;;36.53;9.30;;;;;;;20.09;74.79;100252.38;10477731;28;20072;-68
2022/06/17 01:44:39;;;;;;;9.35;6.72;;;;;;;20.97;74.12;100399.97;10489972;28;20522;-68
2022/06/17 01:49:48;;;;;;;10.60;7.30;;;;;;;20.96;74.17;100411.81;10463288;28;20049;-68
2022/06/17 01:54:56;;;;;;;10.82;7.65;;;;;;;19.84;74.04;100252.59;10459505;28;20044;-68
2022/06/17 02:00:01;;;;;;;8.63;6.30;;;;;;;20.86;74.27;100416.97;10459869;28;20078;-68
2022/06/17 02:05:07;;;;;;;8.15;7.35;;;;;;;20.26;74.26;100334.28;10461648;28;20179;-68
2022/06/17 02:10:08;;;;;;;10.18;6.95;;;;;;;20.14;73.63;100301.06;10460866;28;20057;-68
2022/06/17 02:15:10;;;;;;;13.90;7.57;;;;;;;20.95;73.99;100422.84;10460154;28;20044;-68
2022/06/17 02:20:13;;;;;;;36.92;9.45;;;;;;;20.35;74.89;100321.28;10460654;28;20041;-68
2022/06/17 02:25:24;;;;;;;13.38;7.55;;;;;;;21.05;76.42;100420.38;10460336;28;20041;-68
2022/06/17 02:30:24;;;;;;;8.85;7.40;;;;;;;20.79;74.85;100402.78;10459816;28;20136;-68
2022/06/17 02:35:44;;;;;;;8.80;7.30;;;;;;;20.92;76.17;100424.13;10459783;28;20568;-67
2022/06/17 02:40:52;;;;;;;15.00;8.13;;;;;;;20.79;79.88;100410.88;10464349;28;20047;-68
2022/06/17 02:45:59;;;;;;;13.32;7.38;;;;;;;20.80;78.67;100417.91;10493552;28;20063;-68
2022/06/17 02:51:01;;;;;;;10.98;8.25;;;;;;;20.70;78.56;100418.50;10493929;28;20044;-68
2022/06/17 02:56:09;;;;;;;10.15;7.75;;;;;;;20.74;80.41;100429.66;10500546;28;20040;-68
2022/06/17 03:01:19;;;;;;;8.48;7.68;;;;;;;20.57;81.15;100434.06;10500897;28;20083;-69
2022/06/17 03:06:31;;;;;;;11.63;7.53;;;;;;;20.37;81.85;100432.47;10500156;28;20032;-69
2022/06/17 03:11:32;;;;;;;11.20;6.78;;;;;;;20.43;79.87;100434.25;10499664;28;20123;-68
2022/06/17 03:16:32;;;;;;;19.42;8.30;;;;;;;20.39;80.21;100430.34;10499277;28;20139;-69
2022/06/17 03:21:34;;;;;;;21.63;8.00;;;;;;;20.58;80.80;100458.16;10498715;28;20045;-68
2022/06/17 03:26:42;;;;;;;12.55;7.97;;;;;;;20.60;82.70;100453.31;10499177;28;20532;-70
2022/06/17 03:31:47;;;;;;;10.88;8.10;;;;;;;19.87;81.40;100337.59;10480642;28;20052;-69
2022/06/17 03:36:56;;;;;;;9.38;7.85;;;;;;;20.39;83.00;100421.44;10499244;28;20036;-71
2022/06/17 03:42:05;;;;;;;11.48;7.82;;;;;;;19.82;82.00;100341.75;10498459;28;20108;-69
2022/06/17 03:47:16;;;;;;;9.63;7.80;;;;;;;20.74;82.92;100475.53;10480504;28;20039;-68
2022/06/17 03:52:42;;;;;;;9.35;8.20;;;;;;;20.85;82.21;100474.75;10483214;28;20508;-69
2022/06/17 03:57:46;;;;;;;17.58;7.28;;;;;;;20.09;80.55;100349.47;10452670;28;20084;-69
2022/06/17 04:02:49;;;;;;;11.77;7.30;;;;;;;20.32;79.30;100356.00;10470464;28;20456;-69
2022/06/17 04:07:50;;;;;;;12.77;7.65;;;;;;;20.41;78.64;100360.81;10470296;28;20144;-69
2022/06/17 04:12:52;;;;;;;11.77;8.13;;;;;;;20.40;78.58;100356.47;10485262;28;20135;-69
2022/06/17 04:17:54;;;;;;;20.35;7.43;;;;;;;21.41;78.35;100486.88;10478692;28;20036;-69
2022/06/17 04:22:59;;;;;;;12.38;6.68;;;;;;;20.90;77.20;100418.16;10478345;28;20033;-68
2022/06/17 04:28:06;;;;;;;21.02;6.57;;;;;;;21.52;76.23;100495.22;10488982;28;20411;-68
2022/06/17 04:33:18;;;;;;;35.88;7.07;;;;;;;21.61;76.58;100472.19;10484530;28;20040;-69
2022/06/17 04:38:19;;;;;;;9.18;6.45;;;;;;;21.77;75.52;100487.66;10487256;28;20055;-69
2022/06/17 04:43:29;;;;;;;12.25;6.13;;;;;;;22.03;75.00;100496.31;10495392;28;20048;-68
2022/06/17 04:48:30;;;;;;;8.20;6.32;;;;;;;21.22;73.64;100349.44;10485505;28;20045;-68
2022/06/17 04:53:33;;;;;;;9.13;5.95;;;;;;;22.36;72.54;100494.81;10481962;28;20044;-69
2022/06/17 04:58:33;;;;;;;16.63;5.55;;;;;;;22.90;70.22;100493.31;10468691;28;20090;-68
2022/06/17 05:03:34;;;;;;;10.93;5.75;;;;;;;22.66;67.79;100392.44;10472350;28;20067;-68
2022/06/17 05:08:42;;;;;;;9.38;5.07;;;;;;;22.37;66.03;100344.88;10471480;28;20052;-68
2022/06/17 05:13:57;;;;;;;5.90;4.70;;;;;;;23.54;63.60;100511.09;10469346;28;20091;-68
2022/06/17 05:18:57;;;;;;;5.60;4.45;;;;;;;23.71;64.32;100511.09;10479914;28;20037;-68
2022/06/17 05:23:59;;;;;;;9.80;4.47;;;;;;;23.11;63.57;100377.16;10480099;28;20036;-68
2022/06/17 05:29:00;;;;;;;11.27;4.40;;;;;;;24.19;62.57;100493.22;10479193;28;20040;-69
2022/06/17 05:34:00;;;;;;;6.35;4.50;;;;;;;25.03;60.18;100511.72;10477018;28;20036;-69
2022/06/17 05:39:01;;;;;;;9.25;4.38;;;;;;;23.97;58.66;100282.44;10478901;28;20388;-69
2022/06/17 05:44:02;;;;;;;6.13;4.18;;;;;;;24.71;57.60;100357.72;10477958;28;20482;-68
2022/06/17 05:49:03;;;;;;;7.82;3.65;;;;;;;25.34;56.20;100458.41;10484590;28;20148;-68
2022/06/17 05:54:04;;;;;;;5.88;4.20;;;;;;;25.58;56.02;100487.94;10477917;28;20051;-69
2022/06/17 05:59:05;;;;;;;6.30;3.97;;;;;;;25.71;55.82;100479.28;10476479;28;20090;-69
2022/06/17 06:04:06;;;;;;;6.15;3.63;;;;;;;25.55;55.36;100463.94;10476074;28;20044;-68
2022/06/17 06:09:08;;;;;;;4.82;3.42;;;;;;;25.67;54.93;100476.25;10498126;28;20052;-68
2022/06/17 06:14:09;;;;;;;4.78;3.60;;;;;;;25.71;55.77;100474.63;10501548;28;20047;-68
2022/06/17 06:19:10;;;;;;;10.52;4.30;;;;;;;25.59;55.49;100465.06;10501470;28;20043;-68
2022/06/17 06:24:11;;;;;;;7.40;4.40;;;;;;;25.17;55.08;100373.50;10500967;28;20419;-67
2022/06/17 06:29:13;;;;;;;7.70;4.20;;;;;;;25.75;53.96;100434.09;10500220;28;20067;-68
2022/06/17 06:34:15;;;;;;;39.50;5.43;;;;;;;26.17;53.41;100466.69;10500407;28;20503;-68
2022/06/17 06:39:16;;;;;;;6.63;3.78;;;;;;;26.28;52.62;100462.06;10501336;28;20105;-73
2022/06/17 06:44:17;;;;;;;8.55;3.60;;;;;;;26.47;52.57;100466.97;10500478;28;20174;-68
2022/06/17 06:49:18;;;;;;;6.13;3.08;;;;;;;25.76;51.69;100351.41;10494198;28;20032;-69
2022/06/17 06:54:18;;;;;;;4.22;3.25;;;;;;;26.34;51.63;100452.81;10496278;28;20614;-68
2022/06/17 06:59:19;;;;;;;4.72;3.40;;;;;;;26.70;51.61;100452.88;10476253;28;20040;-69
2022/06/17 07:04:21;;;;;;;8.35;3.53;;;;;;;26.06;50.84;100330.81;10475395;28;20111;-68
2022/06/17 07:09:22;;;;;;;8.55;3.47;;;;;;;26.22;49.79;100327.00;10473785;28;20056;-68
2022/06/17 07:14:23;;;;;;;5.47;2.88;;;;;;;27.10;48.75;100456.63;10474490;28;20565;-68
2022/06/17 07:19:23;;;;;;;11.98;4.13;;;;;;;26.74;49.36;100330.50;10472535;28;20041;-69
2022/06/17 07:24:24;;;;;;;6.55;3.08;;;;;;;27.25;48.51;100448.47;10475175;28;20523;-68
2022/06/17 07:29:25;;;;;;;5.50;3.10;;;;;;;26.26;48.32;100344.41;10480040;28;20406;-68
2022/06/17 07:34:26;;;;;;;8.57;3.75;;;;;;;26.76;47.92;100435.41;10474846;28;20041;-68
2022/06/17 07:44:46;;;;;;;10.05;3.42;;;;;;;26.83;47.77;100441.44;10472967;28;20119;-68
2022/06/17 07:49:47;;;;;;;17.73;3.92;;;;;;;26.82;46.90;100439.78;10481201;28;20040;-68
2022/06/17 07:54:48;;;;;;;5.25;3.20;;;;;;;26.76;46.97;100443.59;10470783;28;20131;-68
2022/06/17 07:59:49;;;;;;;15.95;3.67;;;;;;;26.71;46.58;100443.59;10472883;28;20032;-68
2022/06/17 08:04:50;;;;;;;9.70;3.35;;;;;;;26.27;45.96;100342.53;10471774;28;20095;-67
2022/06/17 08:09:51;;;;;;;4.43;2.75;;;;;;;26.70;44.67;100360.22;10472972;28;20052;-73
2022/06/17 08:14:54;;;;;;;7.75;3.17;;;;;;;27.72;43.96;100392.63;10465776;28;20519;-68
2022/06/17 08:19:56;;;;;;;9.02;3.33;;;;;;;27.47;42.76;100302.72;10470886;28;20069;-69
2022/06/17 08:24:56;;;;;;;6.03;2.70;;;;;;;28.44;41.77;100414.06;10476438;28;20048;-69
2022/06/17 08:29:57;;;;;;;8.45;3.65;;;;;;;28.43;41.42;100402.31;10473154;28;20392;-68
2022/06/17 08:34:58;;;;;;;34.78;4.28;;;;;;;28.20;41.71;100394.81;10470741;28;20036;-68
2022/06/17 08:40:00;;;;;;;39.03;4.93;;;;;;;27.44;42.18;100306.03;10471327;28;20399;-68
2022/06/17 08:45:28;;;;;;;6.30;3.45;;;;;;;27.58;41.39;100317.09;10469991;28;20040;-68
2022/06/17 08:50:35;;;;;;;6.05;3.75;;;;;;;27.90;41.23;100420.41;10475113;28;20056;-68
2022/06/17 08:56:10;;;;;;;7.97;3.08;;;;;;;27.25;41.69;100300.38;10486564;28;20067;-68
2022/06/17 09:01:28;;;;;;;6.47;3.33;;;;;;;27.99;40.96;100413.25;10461962;28;20049;-68
2022/06/17 09:06:55;;;;;;;9.77;3.15;;;;;;;28.26;40.63;100403.78;10472068;28;20048;-69
2022/06/17 09:12:40;;;;;;;13.15;3.80;;;;;;;28.49;40.44;100408.56;10470979;28;20037;-73
2022/06/17 09:17:57;;;;;;;7.57;2.70;;;;;;;27.72;40.69;100280.72;10479465;28;20060;-68
2022/06/17 09:23:02;;;;;;;3.72;2.72;;;;;;;28.30;39.75;100402.13;10471549;28;20058;-68
2022/06/17 09:28:04;;;;;;;5.13;2.78;;;;;;;27.91;39.70;100323.75;10477587;28;20067;-68
2022/06/17 09:33:24;;;;;;;4.38;2.60;;;;;;;28.41;39.44;100379.13;10471220;28;20048;-68
2022/06/17 09:38:39;;;;;;;4.53;2.80;;;;;;;28.49;38.98;100367.56;10473081;28;20032;-68
2022/06/17 09:43:45;;;;;;;15.73;3.13;;;;;;;28.72;38.82;100376.09;10470203;28;20033;-68
2022/06/17 09:48:57;;;;;;;5.78;2.83;;;;;;;28.80;38.50;100367.28;10470561;28;20070;-73
2022/06/17 09:54:21;;;;;;;6.50;2.90;;;;;;;28.44;38.71;100392.19;10461749;28;20165;-67
2022/06/17 09:59:37;;;;;;;15.30;3.65;;;;;;;27.70;38.91;100290.28;10487019;28;20041;-68
2022/06/17 10:04:38;;;;;;;4.07;2.50;;;;;;;28.15;38.76;100368.38;10493923;28;20045;-69
2022/06/17 10:09:56;;;;;;;3.90;2.67;;;;;;;28.19;38.87;100360.41;10481526;28;20059;-68
2022/06/17 10:15:21;;;;;;;11.07;2.83;;;;;;;28.31;39.82;100368.25;10476653;28;20407;-68
2022/06/17 10:20:31;;;;;;;6.63;3.10;;;;;;;27.41;40.55;100247.38;10485546;28;20048;-68
2022/06/17 10:26:09;;;;;;;5.32;3.00;;;;;;;28.06;41.53;100364.63;10502159;28;20040;-68
2022/06/17 10:31:31;;;;;;;5.93;2.70;;;;;;;27.86;40.56;100370.22;10501448;28;20131;-68
2022/06/17 10:36:32;;;;;;;3.97;2.70;;;;;;;27.82;41.25;100371.84;10482698;28;20423;-69
2022/06/17 10:41:33;;;;;;;4.45;2.80;;;;;;;27.00;41.40;100238.56;10501607;28;20049;-68
2022/06/17 10:46:39;;;;;;;45.22;5.47;;;;;;;27.56;41.96;100339.25;10484053;28;20041;-68
2022/06/17 10:51:40;;;;;;;4.30;2.90;;;;;;;27.60;41.88;100361.31;10482986;28;20044;-68
2022/06/17 10:56:53;;;;;;;6.10;2.78;;;;;;;26.86;40.77;100261.00;10501041;28;20044;-68
2022/06/17 11:01:56;;;;;;;6.65;2.95;;;;;;;26.53;41.96;100246.09;10482416;28;20043;-68
2022/06/17 11:07:05;;;;;;;6.15;2.80;;;;;;;26.74;41.95;100316.88;10499630;28;20052;-68
2022/06/17 11:12:17;;;;;;;6.57;2.83;;;;;;;26.62;43.17;100336.25;10500439;28;20044;-68
2022/06/17 11:17:29;;;;;;;5.68;3.05;;;;;;;26.53;43.29;100365.13;10499165;28;20048;-69
2022/06/17 11:22:38;;;;;;;14.03;3.80;;;;;;;26.24;45.92;100334.91;10481931;28;20395;-69
2022/06/17 11:27:42;;;;;;;25.63;5.28;;;;;;;25.59;55.26;100348.09;10499738;28;20415;-69
2022/06/17 11:32:45;;;;;;;15.48;5.22;;;;;;;25.46;62.39;100376.63;10477712;28;20044;-68
2022/06/17 11:37:48;;;;;;;8.80;4.20;;;;;;;25.09;65.48;100371.22;10498799;28;20046;-68
2022/06/17 11:43:03;;;;;;;24.23;5.55;;;;;;;24.81;71.67;100384.94;10498070;28;20044;-68
2022/06/17 11:48:20;;;;;;;31.90;6.10;;;;;;;24.53;73.67;100377.94;10480360;28;20040;-68
2022/06/17 11:53:21;;;;;;;19.30;6.50;;;;;;;24.27;71.46;100385.03;10497341;28;20054;-68
2022/06/17 11:58:22;;;;;;;18.80;6.60;;;;;;;23.91;73.80;100343.16;10497436;28;20032;-68
2022/06/17 12:03:35;;;;;;;11.73;5.30;;;;;;;24.18;78.23;100396.59;10499079;28;20040;-69
2022/06/17 12:08:46;;;;;;;6.72;4.32;;;;;;;23.92;74.71;100380.88;10497426;28;20057;-68
2022/06/17 12:13:52;;;;;;;6.32;4.75;;;;;;;24.13;74.53;100383.78;10494931;28;20049;-68
2022/06/17 12:18:58;;;;;;;4.78;4.07;;;;;;;24.17;71.42;100384.94;10491982;28;20551;-67
2022/06/17 12:24:27;;;;;;;9.40;5.10;;;;;;;23.97;72.76;100330.47;10488336;28;20493;-68
2022/06/17 12:29:44;;;;;;;5.57;3.97;;;;;;;24.07;69.93;100380.22;10492694;28;20121;-69
2022/06/17 12:35:05;;;;;;;5.68;4.57;;;;;;;23.14;73.59;100257.44;10492560;28;20411;-69
2022/06/17 12:40:24;;;;;;;6.82;4.32;;;;;;;23.80;71.91;100388.34;10494764;28;20040;-68
2022/06/17 12:45:57;;;;;;;10.38;4.45;;;;;;;23.69;72.01;100384.72;10491698;28;20101;-68
2022/06/17 12:56:39;;;;;;;6.53;4.50;;;;;;;23.64;68.39;100278.03;10494749;28;20148;-68
2022/06/17 13:01:48;;;;;;;6.88;4.22;;;;;;;23.90;65.84;100268.25;10477284;28;20138;-69
2022/06/17 13:07:17;;;;;;;17.67;4.00;;;;;;;24.84;68.38;100367.28;10477816;28;20052;-69
2022/06/17 13:12:22;;;;;;;6.35;4.00;;;;;;;23.95;63.25;100205.09;10495427;28;20075;-69
2022/06/17 13:18:01;;;;;;;6.75;3.90;;;;;;;25.47;61.53;100353.78;10495504;28;20396;-69
2022/06/17 13:23:22;;;;;;;6.75;4.13;;;;;;;25.88;61.01;100346.56;10482522;28;20497;-68
2022/06/17 13:28:52;;;;;;;13.98;4.28;;;;;;;26.17;59.00;100337.88;10477704;28;20048;-68
2022/06/17 13:34:04;;;;;;;16.30;3.97;;;;;;;24.76;55.47;100115.94;10485966;28;20052;-68
2022/06/17 13:39:14;;;;;;;8.27;3.30;;;;;;;26.09;56.32;100320.19;10495819;28;20029;-68
2022/06/17 13:44:20;;;;;;;5.88;3.10;;;;;;;26.32;55.56;100315.28;10493134;28;20472;-68
2022/06/17 13:49:53;;;;;;;5.47;2.90;;;;;;;25.88;51.86;100212.41;10499727;28;20048;-67
2022/06/17 13:55:03;;;;;;;7.97;2.70;;;;;;;26.61;52.45;100318.28;10464579;28;20056;-68
2022/06/17 14:00:38;;;;;;;3.45;2.38;;;;;;;27.01;50.55;100313.78;10503146;28;20448;-68
2022/06/17 14:06:04;;;;;;;5.68;2.45;;;;;;;26.53;50.42;100232.47;10459439;28;20090;-69
2022/06/17 14:16:31;;;;;;;10.95;2.67;;;;;;;26.70;48.65;100223.97;10501501;28;20044;-68
2022/06/17 14:21:53;;;;;;;5.88;2.45;;;;;;;27.36;47.68;100309.31;10501496;28;20048;-69
2022/06/17 14:26:54;;;;;;;4.10;2.13;;;;;;;27.12;47.97;100307.22;10483868;28;20075;-68
2022/06/17 14:32:01;;;;;;;6.18;2.45;;;;;;;27.09;47.83;100283.22;10501385;28;20399;-71
2022/06/17 14:37:13;;;;;;;3.60;2.03;;;;;;;26.67;46.88;100197.28;10501066;28;20045;-68
2022/06/17 14:42:20;;;;;;;6.63;2.78;;;;;;;27.41;46.18;100325.69;10501401;28;20126;-68
2022/06/17 14:47:21;;;;;;;3.85;2.55;;;;;;;27.13;47.83;100286.22;10500894;28;20036;-68
2022/06/17 14:52:32;;;;;;;12.20;3.00;;;;;;;27.12;49.91;100331.75;10482227;28;20438;-69
2022/06/17 14:57:46;;;;;;;4.07;2.30;;;;;;;26.73;51.13;100332.41;10482829;28;20044;-68
2022/06/17 15:02:50;;;;;;;12.55;3.25;;;;;;;25.72;51.87;100197.94;10499147;28;20032;-68
2022/06/17 15:08:01;;;;;;;12.52;2.83;;;;;;;26.18;51.81;100298.69;10496393;28;20057;-68
2022/06/17 15:18:38;;;;;;;10.23;3.10;;;;;;;25.35;52.77;100244.41;10492808;28;20086;-68
2022/06/17 15:24:11;;;;;;;7.20;3.28;;;;;;;25.81;53.57;100328.81;10490821;28;20416;-68
2022/06/17 15:29:16;;;;;;;9.00;3.22;;;;;;;25.27;54.57;100290.06;10448283;28;20424;-69
2022/06/17 15:34:34;;;;;;;10.00;3.85;;;;;;;25.27;56.77;100333.56;10479640;28;20451;-68
2022/06/17 15:39:44;;;;;;;13.00;3.33;;;;;;;24.09;56.72;100192.72;10472123;28;20040;-69
2022/06/17 15:45:04;;;;;;;9.98;3.20;;;;;;;24.68;57.36;100330.22;10465446;28;20560;-68
2022/06/17 15:50:05;;;;;;;47.65;6.47;;;;;;;24.23;57.47;100288.06;10496330;28;20076;-68
2022/06/17 15:55:09;;;;;;;6.25;3.22;;;;;;;23.74;58.51;100239.38;10497194;28;20488;-69
2022/06/17 16:00:16;;;;;;;9.07;3.63;;;;;;;24.32;58.37;100344.34;10494551;28;20143;-68
2022/06/17 16:05:23;;;;;;;31.42;3.53;;;;;;;24.05;58.65;100308.28;10472338;28;20048;-68
2022/06/17 16:10:27;;;;;;;10.10;3.72;;;;;;;23.41;58.54;100224.94;10455878;28;20057;-68
2022/06/17 16:15:41;;;;;;;18.58;3.95;;;;;;;24.20;59.29;100351.84;10476972;28;20048;-68
2022/06/17 16:20:42;;;;;;;28.27;5.00;;;;;;;22.62;59.33;100112.44;10496826;28;20043;-68
2022/06/17 16:25:43;;;;;;;27.85;5.68;;;;;;;23.47;59.38;100267.28;10497498;28;20503;-68
2022/06/17 16:30:51;;;;;;;19.50;5.13;;;;;;;23.83;60.69;100340.91;10495085;28;20471;-67
2022/06/17 16:36:02;;;;;;;46.83;7.47;;;;;;;23.54;61.67;100338.38;10495914;28;20075;-79
2022/06/17 16:47:04;;;;;;;41.53;6.25;;;;;;;23.13;63.67;100347.94;10496445;28;20127;-76
2022/06/17 16:52:07;;;;;;;;;;;;;;;23.10;62.38;100343.00;10495529;28;20040;-79
2022/06/17 16:57:21;;;;;;;27.97;5.50;;;;;;;22.67;65.55;100350.75;10487256;28;19916;-73
2022/06/17 17:02:22;;;;;;;24.23;5.82;;;;;;;21.64;65.08;100217.59;10495002;28;20079;-75
2022/06/17 17:07:24;;;;;;;13.90;5.40;;;;;;;22.28;66.44;100344.44;10495725;28;20079;-73
2022/06/17 17:12:26;;;;;;;12.13;5.32;;;;;;;22.21;66.57;100350.03;10493963;28;20067;-76
2022/06/17 17:17:27;;;;;;;14.75;5.38;;;;;;;21.48;67.17;100234.56;10492210;28;20075;-74
2022/06/17 17:22:32;;;;;;;14.85;5.70;;;;;;;22.09;69.45;100350.06;10483914;28;20115;-74
2022/06/17 17:27:34;;;;;;;15.63;5.82;;;;;;;21.94;68.74;100340.88;10494352;28;20506;-83
2022/06/17 17:32:35;;;;;;;9.80;5.30;;;;;;;21.93;69.07;100341.91;10484121;28;20033;-76
2022/06/17 17:37:36;;;;;;;8.02;4.43;;;;;;;21.99;69.91;100373.44;10496197;28;20111;-74
2022/06/17 17:42:37;;;;;;;7.65;4.82;;;;;;;21.09;70.52;100231.66;10508908;28;20583;-74
2022/06/17 17:47:38;;;;;;;6.35;4.60;;;;;;;21.64;71.19;100325.72;10485851;28;20062;-77
2022/06/17 17:52:39;;;;;;;6.88;4.45;;;;;;;21.80;72.10;100372.78;10483582;28;20048;-75
2022/06/17 17:57:40;;;;;;;5.43;4.40;;;;;;;21.25;72.39;100294.94;10483174;28;20123;-80
2022/06/17 18:02:41;;;;;;;9.90;5.38;;;;;;;21.70;72.99;100368.00;10489558;28;20044;-74
2022/06/17 18:07:42;;;;;;;14.60;6.45;;;;;;;21.72;73.29;100376.72;10488075;28;20487;-74
2022/06/17 18:12:46;;;;;;;17.02;8.13;;;;;;;21.49;73.72;100345.16;10489754;28;20044;-75
2022/06/17 18:17:47;;;;;;;7.85;5.53;;;;;;;20.84;74.25;100243.59;10487065;28;20155;-74
2022/06/17 18:22:49;;;;;;;19.27;6.10;;;;;;;20.94;74.27;100253.78;10498336;28;20048;-74
2022/06/17 18:27:51;;;;;;;54.70;25.48;;;;;;;21.54;74.91;100361.50;10498532;28;20451;-74
2022/06/17 18:32:55;;;;;;;47.03;22.88;;;;;;;20.74;74.79;100222.59;10498377;28;20044;-74
2022/06/17 18:37:56;;;;;;;17.27;9.15;;;;;;;21.46;74.45;100324.03;10499013;28;20047;-74
2022/06/17 18:42:57;;;;;;;12.88;6.97;;;;;;;21.68;74.19;100353.91;10476981;28;20055;-74
2022/06/17 18:48:01;;;;;;;16.85;7.70;;;;;;;21.70;75.51;100356.38;10497001;28;20051;-74
2022/06/17 18:53:04;;;;;;;11.10;6.10;;;;;;;21.34;75.02;100297.00;10500104;28;20044;-74
2022/06/17 18:58:05;;;;;;;8.23;4.75;;;;;;;21.46;74.89;100324.03;10501128;28;20556;-74
2022/06/17 19:03:07;;;;;;;7.97;4.45;;;;;;;21.40;74.77;100317.69;10500863;28;20058;-75
2022/06/17 19:19:00;;;;;;;13.68;4.75;;;;;;;20.63;76.55;100231.53;10496040;28;20085;-73
2022/06/17 19:24:02;;;;;;;7.03;4.82;;;;;;;21.15;75.80;100323.38;10496619;28;20059;-74
2022/06/17 19:29:03;;;;;;;7.10;4.50;;;;;;;21.00;75.81;100314.09;10494468;28;20075;-73
2022/06/17 19:34:04;;;;;;;9.55;4.47;;;;;;;21.09;75.74;100335.13;10496727;28;20103;-73
2022/06/17 19:39:05;;;;;;;9.00;4.45;;;;;;;21.01;76.02;100335.50;10495204;28;20078;-73
2022/06/17 19:44:08;;;;;;;9.88;4.43;;;;;;;20.92;76.64;100328.81;10498442;28;20451;-73
2022/06/17 19:49:12;;;;;;;15.63;5.13;;;;;;;19.38;77.62;100092.41;10498507;28;20044;-74
2022/06/17 19:54:13;;;;;;;8.50;4.90;;;;;;;19.89;77.49;100193.41;10498251;28;20488;-73
2022/06/17 19:59:16;;;;;;;6.93;4.65;;;;;;;19.89;78.10;100216.84;10497740;28;20422;-75
2022/06/17 20:04:26;;;;;;;7.38;5.00;;;;;;;20.50;79.08;100318.13;10499054;28;20041;-73
2022/06/17 20:09:28;;;;;;;5.85;4.75;;;;;;;20.39;78.61;100317.03;10495524;28;20056;-73
2022/06/17 20:14:32;;;;;;;7.65;5.50;;;;;;;20.22;79.44;100289.09;10496541;28;20504;-73
2022/06/17 20:19:35;;;;;;;7.68;4.93;;;;;;;20.30;78.82;100329.22;10496718;28;20063;-73
2022/06/17 20:24:40;;;;;;;8.35;5.13;;;;;;;20.03;80.13;100310.75;10496705;28;20040;-73
2022/06/17 20:29:42;;;;;;;10.02;5.72;;;;;;;19.80;80.26;100279.19;10497534;28;20032;-73
2022/06/17 20:34:44;;;;;;;9.30;5.50;;;;;;;19.74;80.94;100284.66;10496730;28;20109;-73
2022/06/17 20:39:45;;;;;;;7.47;6.35;;;;;;;19.72;81.36;100311.03;10496419;28;20063;-73
2022/06/17 20:50:17;;;;;;;9.02;5.90;;;;;;;19.57;81.74;100314.94;10458360;28;20052;-73
2022/06/17 20:55:25;;;;;;;11.02;6.50;;;;;;;19.42;84.19;100302.91;10496149;28;20439;-73
2022/06/17 21:00:26;;;;;;;16.02;6.47;;;;;;;19.35;83.03;100314.59;10494042;28;20492;-73
2022/06/17 21:05:29;;;;;;;8.93;6.15;;;;;;;19.21;83.80;100299.66;10476854;28;20393;-73
2022/06/17 21:10:37;;;;;;;11.30;6.40;;;;;;;19.08;84.84;100281.75;10454840;28;20065;-73
2022/06/17 21:15:38;;;;;;;8.43;5.97;;;;;;;19.11;84.11;100313.63;10454290;28;20111;-73
2022/06/17 21:20:40;;;;;;;11.48;5.93;;;;;;;18.95;84.48;100284.63;10453804;28;20416;-73
2022/06/17 21:25:41;;;;;;;11.52;5.88;;;;;;;19.05;84.47;100298.38;10454239;28;20123;-73
2022/06/17 21:30:44;;;;;;;9.95;6.00;;;;;;;18.99;84.75;100306.53;10454082;28;20041;-73
2022/06/17 21:35:48;;;;;;;12.20;5.47;;;;;;;18.83;85.32;100302.56;10453883;28;20404;-73
2022/06/17 21:40:52;;;;;;;9.50;5.88;;;;;;;18.75;85.67;100297.47;10452100;28;20067;-73
2022/06/17 21:45:53;;;;;;;8.18;6.55;;;;;;;18.69;85.82;100299.97;10460466;28;20702;-73
2022/06/17 21:50:55;;;;;;;10.68;6.75;;;;;;;18.69;86.30;100293.75;10478687;28;20055;-73
2022/06/17 21:55:59;;;;;;;12.80;6.60;;;;;;;17.86;87.89;100146.25;10494611;28;20048;-73
2022/06/17 22:01:00;;;;;;;8.85;5.95;;;;;;;18.09;87.33;100200.19;10496633;28;20047;-73
2022/06/17 22:06:04;;;;;;;9.23;7.00;;;;;;;18.62;87.93;100287.63;10503073;28;20127;-73
2022/06/17 22:11:05;;;;;;;9.43;6.72;;;;;;;18.51;87.41;100273.03;10501436;28;20079;-74
2022/06/17 22:16:06;;;;;;;11.13;6.95;;;;;;;18.40;87.84;100284.53;10500845;28;20044;-73
2022/06/17 22:21:10;;;;;;;12.23;6.57;;;;;;;18.31;88.92;100277.75;10502040;28;20090;-73
2022/06/17 22:26:13;;;;;;;9.43;7.10;;;;;;;18.31;88.77;100278.63;10501978;28;20078;-74
2022/06/17 22:31:19;;;;;;;8.23;5.97;;;;;;;18.25;89.95;100292.94;10501135;28;20048;-74
2022/06/17 22:36:22;;;;;;;12.45;7.35;;;;;;;17.42;89.20;100148.03;10488399;28;20450;-73
2022/06/17 22:41:23;;;;;;;16.77;7.35;;;;;;;18.22;89.88;100275.38;10491053;28;20068;-76
2022/06/17 22:46:24;;;;;;;9.80;6.63;;;;;;;18.17;89.58;100277.06;10478652;28;20068;-73
2022/06/17 22:51:24;;;;;;;9.30;6.13;;;;;;;17.99;88.99;100267.91;10500118;28;20127;-75
2022/06/17 22:56:25;;;;;;;10.38;6.45;;;;;;;17.96;89.23;100273.72;10482157;28;20046;-74
2022/06/17 23:01:28;;;;;;;11.00;6.53;;;;;;;17.81;89.90;100261.63;10500119;28;20032;-74
2022/06/17 23:06:28;;;;;;;8.43;6.05;;;;;;;17.67;89.66;100242.88;10500496;28;20123;-74
2022/06/17 23:11:29;;;;;;;10.52;7.28;;;;;;;17.19;89.88;100162.81;10499028;28;20132;-74
2022/06/17 23:16:30;;;;;;;13.07;7.30;;;;;;;17.19;90.59;100162.81;10500446;28;20049;-74
2022/06/17 23:21:35;;;;;;;7.93;6.15;;;;;;;17.54;90.65;100221.50;10500163;28;20032;-74
2022/06/17 23:26:36;;;;;;;8.20;6.32;;;;;;;16.98;89.84;100157.78;10498929;28;20067;-75
2022/06/17 23:31:41;;;;;;;8.85;7.13;;;;;;;17.52;90.83;100253.91;10499535;28;20052;-74
2022/06/17 23:36:44;;;;;;;10.23;7.00;;;;;;;17.03;91.28;100166.84;10499116;28;20059;-74
2022/06/17 23:41:45;;;;;;;17.83;7.00;;;;;;;17.56;91.32;100244.41;10500106;28;20048;-74
2022/06/17 23:46:46;;;;;;;10.27;6.82;;;;;;;17.47;91.25;100242.16;10498498;28;20460;-75
2022/06/17 23:51:50;;;;;;;10.68;6.88;;;;;;;17.48;91.91;100244.66;10499065;28;20477;-74
2022/06/17 23:56:51;;;;;;;10.37;7.10;;;;;;;17.39;91.72;100231.72;10497776;28;20046;-74
